createdAt,value
2018-09-18T00:01:03.574Z,11.4
2018-09-18T00:02:10.786Z,11.4
2018-09-18T00:03:17.992Z,11.4
2018-09-18T00:04:25.205Z,11.4
2018-09-18T00:05:32.423Z,11.3
2018-09-18T00:06:39.634Z,11.4
2018-09-18T00:07:46.850Z,11.4
2018-09-18T00:08:54.055Z,11.3
2018-09-18T00:10:01.334Z,11.3
2018-09-18T00:11:08.632Z,11.3
2018-09-18T00:12:15.847Z,11.3
2018-09-18T00:13:23.055Z,11.2
2018-09-18T00:14:30.264Z,11.3
2018-09-18T00:15:37.476Z,11.3
2018-09-18T00:16:44.690Z,11.2
2018-09-18T00:17:51.898Z,11.2
2018-09-18T00:18:59.133Z,11.2
2018-09-18T00:20:06.340Z,11.2
2018-09-18T00:21:13.780Z,11.2
2018-09-18T00:22:20.703Z,11.2
2018-09-18T00:23:27.913Z,11.1
2018-09-18T00:24:35.126Z,11.2
2018-09-18T00:25:42.343Z,11.1
2018-09-18T00:26:49.548Z,11.1
2018-09-18T00:27:56.757Z,11.1
2018-09-18T00:29:03.981Z,11.1
2018-09-18T00:30:10.918Z,11.1
2018-09-18T00:31:18.130Z,11
2018-09-18T00:32:25.068Z,11
2018-09-18T00:33:32.290Z,11
2018-09-18T00:34:39.502Z,11
2018-09-18T00:35:46.716Z,11
2018-09-18T00:36:53.922Z,11.1
2018-09-18T00:38:00.872Z,11
2018-09-18T00:39:07.811Z,11
2018-09-18T00:40:15.025Z,11
2018-09-18T00:41:22.237Z,11
2018-09-18T00:42:29.448Z,11
2018-09-18T00:43:36.659Z,11
2018-09-18T00:44:43.873Z,11
2018-09-18T00:45:51.081Z,11
2018-09-18T00:46:58.025Z,11
2018-09-18T00:48:05.233Z,11
2018-09-18T00:49:12.447Z,11.1
2018-09-18T00:50:19.655Z,11.1
2018-09-18T00:51:26.863Z,11
2018-09-18T00:52:34.075Z,11
2018-09-18T00:53:41.292Z,11
2018-09-18T00:54:48.502Z,11.1
2018-09-18T00:55:55.712Z,11
2018-09-18T00:57:02.921Z,11
2018-09-18T00:58:10.133Z,11
2018-09-18T00:59:17.349Z,11
2018-09-18T01:00:24.557Z,11
2018-09-18T01:01:31.488Z,11
2018-09-18T01:02:38.704Z,11
2018-09-18T01:03:45.916Z,11
2018-09-18T01:04:53.126Z,11
2018-09-18T01:06:00.335Z,10.9
2018-09-18T01:07:07.545Z,10.9
2018-09-18T01:08:14.757Z,10.9
2018-09-18T01:09:21.691Z,10.8
2018-09-18T01:10:28.899Z,10.8
2018-09-18T01:11:36.115Z,10.7
2018-09-18T01:12:43.328Z,10.8
2018-09-18T01:13:50.537Z,10.7
2018-09-18T01:14:57.750Z,10.7
2018-09-18T01:16:04.952Z,10.7
2018-09-18T01:17:12.163Z,10.7
2018-09-18T01:18:19.368Z,10.7
2018-09-18T01:19:26.303Z,10.7
2018-09-18T01:20:33.511Z,10.7
2018-09-18T01:21:40.719Z,10.7
2018-09-18T01:22:47.929Z,10.7
2018-09-18T01:23:55.147Z,10.7
2018-09-18T01:25:02.354Z,10.7
2018-09-18T01:26:09.569Z,10.7
2018-09-18T01:27:16.509Z,10.7
2018-09-18T01:28:23.730Z,10.7
2018-09-18T01:29:30.940Z,10.7
2018-09-18T01:30:38.160Z,10.7
2018-09-18T01:31:45.367Z,10.7
2018-09-18T01:32:52.583Z,10.7
2018-09-18T01:33:59.790Z,10.7
2018-09-18T01:35:07.004Z,10.7
2018-09-18T01:36:14.213Z,10.7
2018-09-18T01:37:21.419Z,10.7
2018-09-18T01:38:28.630Z,10.7
2018-09-18T01:39:35.560Z,10.7
2018-09-18T01:40:42.501Z,10.6
2018-09-18T01:41:49.711Z,10.6
2018-09-18T01:42:56.619Z,10.6
2018-09-18T01:44:03.558Z,10.6
2018-09-18T01:45:10.766Z,10.6
2018-09-18T01:46:17.706Z,10.6
2018-09-18T01:47:24.929Z,10.6
2018-09-18T01:48:32.138Z,10.6
2018-09-18T01:49:39.344Z,10.7
2018-09-18T01:50:46.558Z,10.7
2018-09-18T01:51:53.491Z,10.6
2018-09-18T01:53:00.709Z,10.6
2018-09-18T01:54:07.918Z,10.6
2018-09-18T01:55:15.131Z,10.6
2018-09-18T01:56:22.341Z,10.6
2018-09-18T01:57:29.587Z,10.5
2018-09-18T01:58:36.227Z,10.6
2018-09-18T01:59:43.447Z,10.5
2018-09-18T02:00:50.659Z,10.5
2018-09-18T02:01:57.592Z,10.5
2018-09-18T02:03:04.807Z,10.5
2018-09-18T02:04:12.019Z,10.5
2018-09-18T02:05:19.229Z,10.5
2018-09-18T02:06:26.441Z,10.5
2018-09-18T02:07:33.653Z,10.5
2018-09-18T02:08:40.590Z,10.4
2018-09-18T02:09:47.800Z,10.4
2018-09-18T02:10:55.016Z,10.4
2018-09-18T02:12:02.222Z,10.4
2018-09-18T02:13:09.444Z,10.4
2018-09-18T02:14:16.881Z,10.4
2018-09-18T02:15:24.085Z,10.4
2018-09-18T02:16:31.024Z,10.4
2018-09-18T02:17:38.236Z,10.4
2018-09-18T02:18:45.445Z,10.4
2018-09-18T02:19:52.659Z,10.4
2018-09-18T02:20:59.863Z,10.4
2018-09-18T02:22:07.082Z,10.3
2018-09-18T02:23:14.292Z,10.3
2018-09-18T02:24:21.502Z,10.2
2018-09-18T02:25:28.714Z,10.2
2018-09-18T02:26:35.653Z,10.2
2018-09-18T02:27:42.860Z,10.2
2018-09-18T02:28:50.075Z,10.2
2018-09-18T02:29:57.291Z,10.2
2018-09-18T02:31:04.500Z,10.2
2018-09-18T02:32:11.423Z,10.2
2018-09-18T02:33:18.634Z,10.1
2018-09-18T02:34:25.848Z,10.1
2018-09-18T02:35:33.054Z,10.1
2018-09-18T02:36:40.268Z,10.1
2018-09-18T02:37:47.477Z,10.1
2018-09-18T02:38:54.408Z,10.1
2018-09-18T02:40:01.620Z,10.2
2018-09-18T02:41:08.829Z,10.1
2018-09-18T02:42:16.039Z,10.1
2018-09-18T02:43:23.242Z,10
2018-09-18T02:44:30.447Z,10
2018-09-18T02:45:37.659Z,10
2018-09-18T02:46:44.595Z,10
2018-09-18T02:47:51.802Z,10
2018-09-18T02:48:59.018Z,10
2018-09-18T02:50:06.234Z,10
2018-09-18T02:51:13.461Z,10
2018-09-18T02:52:20.682Z,10
2018-09-18T02:53:27.890Z,10
2018-09-18T02:54:35.103Z,10
2018-09-18T02:55:42.320Z,10.1
2018-09-18T02:56:49.538Z,10
2018-09-18T02:57:56.748Z,10
2018-09-18T02:59:03.958Z,10
2018-09-18T03:00:10.616Z,10
2018-09-18T03:01:17.828Z,10
2018-09-18T03:02:25.052Z,9.9
2018-09-18T03:03:32.259Z,9.9
2018-09-18T03:04:39.212Z,9.9
2018-09-18T03:05:46.430Z,9.9
2018-09-18T03:06:53.641Z,9.9
2018-09-18T03:08:00.863Z,9.9
2018-09-18T03:09:08.070Z,9.8
2018-09-18T03:10:15.005Z,9.9
2018-09-18T03:11:22.430Z,9.9
2018-09-18T03:12:29.909Z,9.8
2018-09-18T03:13:37.120Z,9.9
2018-09-18T03:14:44.333Z,9.9
2018-09-18T03:15:51.540Z,9.8
2018-09-18T03:16:58.474Z,9.8
2018-09-18T03:18:05.690Z,9.7
2018-09-18T03:19:12.898Z,9.8
2018-09-18T03:20:20.113Z,9.8
2018-09-18T03:21:27.319Z,9.7
2018-09-18T03:22:34.534Z,9.7
2018-09-18T03:23:41.743Z,9.7
2018-09-18T03:24:48.949Z,9.7
2018-09-18T03:25:56.155Z,9.6
2018-09-18T03:27:03.371Z,9.6
2018-09-18T03:28:10.578Z,9.6
2018-09-18T03:29:17.515Z,9.7
2018-09-18T03:30:24.714Z,9.7
2018-09-18T03:31:31.929Z,9.7
2018-09-18T03:32:38.863Z,9.7
2018-09-18T03:33:46.078Z,9.7
2018-09-18T03:34:53.026Z,9.7
2018-09-18T03:36:00.236Z,9.7
2018-09-18T03:37:07.178Z,9.7
2018-09-18T03:38:14.389Z,9.7
2018-09-18T03:39:21.600Z,9.7
2018-09-18T03:40:28.805Z,9.7
2018-09-18T03:41:36.017Z,9.6
2018-09-18T03:42:43.234Z,9.6
2018-09-18T03:43:50.444Z,9.6
2018-09-18T03:44:57.654Z,9.6
2018-09-18T03:46:04.869Z,9.5
2018-09-18T03:47:12.079Z,9.5
2018-09-18T03:48:19.301Z,9.5
2018-09-18T03:49:26.501Z,9.5
2018-09-18T03:50:33.708Z,9.5
2018-09-18T03:51:40.921Z,9.5
2018-09-18T03:52:48.129Z,9.5
2018-09-18T03:53:55.341Z,9.5
2018-09-18T03:55:02.287Z,9.4
2018-09-18T03:56:09.230Z,9.4
2018-09-18T03:57:16.167Z,9.4
2018-09-18T03:58:23.385Z,9.4
2018-09-18T03:59:30.341Z,9.4
2018-09-18T04:00:37.550Z,9.4
2018-09-18T04:01:44.755Z,9.4
2018-09-18T04:02:52.003Z,9.4
2018-09-18T04:03:59.373Z,9.3
2018-09-18T04:05:06.585Z,9.3
2018-09-18T04:06:13.795Z,9.3
2018-09-18T04:07:21.009Z,9.3
2018-09-18T04:08:28.230Z,9.3
2018-09-18T04:09:35.445Z,9.3
2018-09-18T04:10:42.709Z,9.4
2018-09-18T04:11:49.916Z,9.4
2018-09-18T04:12:56.853Z,9.4
2018-09-18T04:14:04.068Z,9.4
2018-09-18T04:15:11.279Z,9.4
2018-09-18T04:16:18.504Z,9.4
2018-09-18T04:17:25.765Z,9.4
2018-09-18T04:18:33.154Z,9.4
2018-09-18T04:19:40.359Z,9.4
2018-09-18T04:20:47.348Z,9.3
2018-09-18T04:21:54.564Z,9.3
2018-09-18T04:23:01.796Z,9.4
2018-09-18T04:24:09.005Z,9.3
2018-09-18T04:25:16.217Z,9.3
2018-09-18T04:26:23.152Z,9.3
2018-09-18T04:27:30.088Z,9.3
2018-09-18T04:28:37.296Z,9.2
2018-09-18T04:29:44.505Z,9.2
2018-09-18T04:30:51.717Z,9.2
2018-09-18T04:31:58.926Z,9.2
2018-09-18T04:33:06.139Z,9.2
2018-09-18T04:34:13.342Z,9.2
2018-09-18T04:35:20.552Z,9.2
2018-09-18T04:36:27.759Z,9.3
2018-09-18T04:37:34.970Z,9.2
2018-09-18T04:38:42.174Z,9.3
2018-09-18T04:39:49.384Z,9.3
2018-09-18T04:40:56.598Z,9.3
2018-09-18T04:42:03.810Z,9.3
2018-09-18T04:43:11.023Z,9.3
2018-09-18T04:44:17.959Z,9.4
2018-09-18T04:45:25.175Z,9.3
2018-09-18T04:46:32.389Z,9.4
2018-09-18T04:47:39.333Z,9.3
2018-09-18T04:48:46.552Z,9.4
2018-09-18T04:49:53.764Z,9.4
2018-09-18T04:51:00.973Z,9.4
2018-09-18T04:52:08.181Z,9.4
2018-09-18T04:53:15.394Z,9.3
2018-09-18T04:54:22.652Z,9.3
2018-09-18T04:55:29.595Z,9.3
2018-09-18T04:56:36.803Z,9.3
2018-09-18T04:57:44.007Z,9.3
2018-09-18T04:58:51.218Z,9.3
2018-09-18T04:59:58.436Z,9.3
2018-09-18T05:01:05.640Z,9.3
2018-09-18T05:02:12.969Z,9.3
2018-09-18T05:03:20.409Z,9.3
2018-09-18T05:04:27.615Z,9.2
2018-09-18T05:05:34.821Z,9.2
2018-09-18T05:06:42.028Z,9.2
2018-09-18T05:07:49.231Z,9.3
2018-09-18T05:08:56.442Z,9.3
2018-09-18T05:10:03.648Z,9.3
2018-09-18T05:11:10.857Z,9.3
2018-09-18T05:12:18.062Z,9.3
2018-09-18T05:13:25.270Z,9.3
2018-09-18T05:14:32.477Z,9.3
2018-09-18T05:15:39.688Z,9.4
2018-09-18T05:16:46.911Z,9.4
2018-09-18T05:17:54.121Z,9.4
2018-09-18T05:19:01.339Z,9.4
2018-09-18T05:20:08.536Z,9.3
2018-09-18T05:21:15.746Z,9.4
2018-09-18T05:22:22.962Z,9.4
2018-09-18T05:23:30.175Z,9.4
2018-09-18T05:24:37.109Z,9.4
2018-09-18T05:25:44.324Z,9.4
2018-09-18T05:26:51.545Z,9.4
2018-09-18T05:27:58.746Z,9.4
2018-09-18T05:29:05.959Z,9.5
2018-09-18T05:30:13.167Z,9.5
2018-09-18T05:31:20.106Z,9.5
2018-09-18T05:32:27.316Z,9.5
2018-09-18T22:00:06.450Z,16.9
2018-09-18T22:01:13.765Z,16.9
2018-09-18T22:02:21.053Z,16.9
2018-09-18T22:03:28.263Z,16.9
2018-09-18T22:04:35.253Z,16.9
2018-09-18T22:05:42.494Z,16.8
2018-09-18T22:06:49.803Z,16.8
2018-09-18T22:07:57.096Z,16.8
2018-09-18T22:09:04.311Z,16.8
2018-09-18T22:10:11.527Z,16.8
2018-09-18T22:11:18.731Z,16.8
2018-09-18T22:12:26.053Z,16.8
2018-09-18T22:13:33.423Z,16.8
2018-09-18T22:14:40.640Z,16.8
2018-09-18T22:15:47.856Z,16.8
2018-09-18T22:16:55.090Z,16.7
2018-09-18T22:18:02.292Z,16.7
2018-09-18T22:19:09.525Z,16.7
2018-09-18T22:20:16.775Z,16.7
2018-09-18T22:21:23.719Z,16.7
2018-09-18T22:22:30.652Z,16.7
2018-09-18T22:23:37.912Z,16.7
2018-09-18T22:24:45.138Z,16.7
2018-09-18T22:25:52.351Z,16.6
2018-09-18T22:26:59.568Z,16.6
2018-09-18T22:28:06.787Z,16.6
2018-09-18T22:29:13.996Z,16.5
2018-09-18T22:30:21.259Z,16.5
2018-09-18T22:31:28.200Z,16.5
2018-09-18T22:32:35.421Z,16.5
2018-09-18T22:33:42.373Z,16.5
2018-09-18T22:34:49.583Z,16.4
2018-09-18T22:35:56.803Z,16.4
2018-09-18T22:37:04.012Z,16.4
2018-09-18T22:38:11.232Z,16.4
2018-09-18T22:39:18.456Z,16.4
2018-09-18T22:40:25.658Z,16.3
2018-09-18T22:41:32.607Z,16.3
2018-09-18T22:42:39.825Z,16.3
2018-09-18T22:43:47.043Z,16.3
2018-09-18T22:44:54.255Z,16.3
2018-09-18T22:46:01.478Z,16.3
2018-09-18T22:47:08.697Z,16.3
2018-09-18T22:48:15.912Z,16.3
2018-09-18T22:49:23.132Z,16.3
2018-09-18T22:50:30.359Z,16.2
2018-09-18T22:51:37.621Z,16.2
2018-09-18T22:52:44.840Z,16.2
2018-09-18T22:53:52.093Z,16.2
2018-09-18T22:54:59.027Z,16.3
2018-09-18T22:56:06.239Z,16.2
2018-09-18T22:57:13.480Z,16.3
2018-09-18T22:58:20.460Z,16.3
2018-09-18T22:59:27.679Z,16.3
2018-09-18T23:00:34.913Z,16.3
2018-09-18T23:01:42.117Z,16.2
2018-09-18T23:02:49.332Z,16.2
2018-09-18T23:03:56.549Z,16.2
2018-09-18T23:05:03.778Z,16.2
2018-09-18T23:06:11.023Z,16.2
2018-09-18T23:07:18.238Z,16.2
2018-09-18T23:08:25.457Z,16.2
2018-09-18T23:09:32.673Z,16.2
2018-09-18T23:10:39.887Z,16.2
2018-09-18T23:11:47.101Z,16.2
2018-09-18T23:12:54.321Z,16.1
2018-09-18T23:14:01.536Z,16.2
2018-09-18T23:15:08.475Z,16.1
2018-09-18T23:16:15.694Z,16.2
2018-09-18T23:17:22.912Z,16.1
2018-09-18T23:18:30.122Z,16.1
2018-09-18T23:19:37.338Z,16.1
2018-09-18T23:20:44.561Z,16.1
2018-09-18T23:21:51.496Z,16.1
2018-09-18T23:22:58.708Z,16.1
2018-09-18T23:24:05.928Z,16
2018-09-18T23:25:13.145Z,16
2018-09-18T23:26:20.357Z,16
2018-09-18T23:27:27.569Z,16
2018-09-18T23:28:34.779Z,16
2018-09-18T23:29:42.006Z,16
2018-09-18T23:30:49.218Z,16
2018-09-18T23:31:56.432Z,16
2018-09-18T23:33:03.650Z,16
2018-09-18T23:34:10.854Z,16.1
2018-09-18T23:35:18.068Z,16
2018-09-18T23:36:25.025Z,16
2018-09-18T23:37:32.237Z,16
2018-09-18T23:38:39.516Z,16
2018-09-18T23:39:46.450Z,16
2018-09-18T23:40:53.388Z,16
2018-09-18T23:42:00.788Z,15.9
2018-09-18T23:43:08.054Z,15.9
2018-09-18T23:44:14.989Z,16
2018-09-18T23:45:22.205Z,15.9
2018-09-18T23:46:29.414Z,15.9
2018-09-18T23:47:36.660Z,15.9
2018-09-18T23:48:43.876Z,15.9
2018-09-18T23:49:51.093Z,15.9
2018-09-18T23:50:58.301Z,15.9
2018-09-18T23:52:05.519Z,15.9
2018-09-18T23:53:12.732Z,15.8
2018-09-18T23:54:19.941Z,15.8
2018-09-18T23:55:27.164Z,15.8
2018-09-18T23:56:34.377Z,15.8
2018-09-18T23:57:41.594Z,15.7
2018-09-18T23:58:48.806Z,15.8
2018-09-18T23:59:56.054Z,15.8
